Time;durP1;ratioP1;P1;durP2;ratioP2;P2;SDS_P1;SDS_P2;PMS_P1;PMS_P2;Temp;Humidity;BMP_temperature;BMP_pressure;BME280_temperature;BME280_humidity;BME280_pressure;Samples;Min_cycle;Max_cycle;Signal;HPM_P1;HPM_P2
2021/08/07 00:02:26;;;;;;;0.70;0.70;;;;;;;;;;5073018;28;20183;-87
2021/08/07 00:04:55;;;;;;;1.00;1.00;;;;;;;;;;5073336;28;20561;-86
2021/08/07 00:07:26;;;;;;;0.95;0.95;;;;;;;;;;5073010;28;20299;-87
2021/08/07 00:09:53;;;;;;;0.60;0.60;;;;;;;;;;5073235;28;20215;-87
2021/08/07 00:12:21;;;;;;;0.90;0.90;;;;;;;;;;5073012;28;20177;-87
2021/08/07 00:14:50;;;;;;;1.00;1.00;;;;;;;;;;5072880;28;20187;-87
2021/08/07 00:17:18;;;;;;;1.13;1.13;;;;;;;;;;5072735;28;20224;-87
2021/08/07 00:19:48;;;;;;;2.22;1.27;;;;;;;;;;5072911;28;20586;-87
2021/08/07 00:22:16;;;;;;;0.88;0.88;;;;;;;;;;5073083;28;20188;-87
2021/08/07 00:24:49;;;;;;;0.82;0.82;;;;;;;;;;5072954;28;20181;-87
2021/08/07 00:27:18;;;;;;;0.57;0.57;;;;;;;;;;5072590;28;20703;-87
2021/08/07 00:29:47;;;;;;;1.00;0.90;;;;;;;;;;5072612;28;20181;-87
2021/08/07 00:32:16;;;;;;;1.15;1.00;;;;;;;;;;5072969;28;20557;-87
2021/08/07 00:34:47;;;;;;;2.08;1.80;;;;;;;;;;5072841;28;20185;-88
2021/08/07 00:37:16;;;;;;;0.65;0.65;;;;;;;;;;5072755;28;20231;-87
2021/08/07 00:39:44;;;;;;;0.80;0.80;;;;;;;;;;5072865;28;20187;-87
2021/08/07 00:42:13;;;;;;;1.00;0.90;;;;;;;;;;5072396;28;20185;-87
2021/08/07 00:44:40;;;;;;;0.85;0.85;;;;;;;;;;5072582;28;20260;-88
2021/08/07 00:47:14;;;;;;;0.80;0.80;;;;;;;;;;5072313;28;20216;-87
2021/08/07 00:49:44;;;;;;;0.80;0.80;;;;;;;;;;5072664;28;20177;-87
2021/08/07 00:52:12;;;;;;;0.98;0.98;;;;;;;;;;5072172;28;20707;-87
2021/08/07 00:54:41;;;;;;;1.15;1.10;;;;;;;;;;5052538;28;20198;-86
2021/08/07 00:57:11;;;;;;;1.00;1.00;;;;;;;;;;5052522;28;20229;-87
2021/08/07 00:59:42;;;;;;;0.70;0.70;;;;;;;;;;5052060;28;20664;-87
2021/08/07 01:02:14;;;;;;;0.73;0.73;;;;;;;;;;5052467;28;20174;-87
2021/08/07 01:04:46;;;;;;;0.60;0.60;;;;;;;;;;5052696;28;20185;-86
2021/08/07 01:07:25;;;;;;;0.43;0.43;;;;;;;;;;5052817;28;20225;-87
2021/08/07 01:10:03;;;;;;;0.75;0.75;;;;;;;;;;5053352;28;20189;-87
2021/08/07 01:12:39;;;;;;;0.82;0.82;;;;;;;;;;5072745;28;20189;-87
2021/08/07 01:15:09;;;;;;;1.30;1.20;;;;;;;;;;5072370;28;20657;-87
2021/08/07 01:17:38;;;;;;;0.60;0.60;;;;;;;;;;5072332;28;20224;-88
2021/08/07 01:20:14;;;;;;;0.80;0.80;;;;;;;;;;5072420;28;20196;-88
2021/08/07 01:22:55;;;;;;;0.73;0.73;;;;;;;;;;5072647;28;20193;-88
2021/08/07 01:25:24;;;;;;;0.80;0.80;;;;;;;;;;5072124;28;20199;-88
2021/08/07 01:27:54;;;;;;;0.90;0.90;;;;;;;;;;5072060;28;20220;-87
2021/08/07 01:30:29;;;;;;;1.40;1.00;;;;;;;;;;5072217;28;20185;-86
2021/08/07 01:32:58;;;;;;;0.90;0.90;;;;;;;;;;5072103;28;20212;-88
2021/08/07 01:35:27;;;;;;;1.00;1.00;;;;;;;;;;5072025;28;20184;-87
2021/08/07 01:37:57;;;;;;;0.80;0.80;;;;;;;;;;5071875;28;20710;-86
2021/08/07 01:40:25;;;;;;;0.85;0.80;;;;;;;;;;5072004;28;20208;-87
2021/08/07 01:42:54;;;;;;;1.10;1.00;;;;;;;;;;5072099;28;20180;-88
2021/08/07 01:45:22;;;;;;;0.60;0.60;;;;;;;;;;5072131;28;20184;-87
2021/08/07 01:47:55;;;;;;;0.68;0.68;;;;;;;;;;5071971;28;20227;-86
2021/08/07 01:50:28;;;;;;;1.15;0.68;;;;;;;;;;5072193;28;20630;-87
2021/08/07 01:53:01;;;;;;;0.70;0.70;;;;;;;;;;5071654;28;20582;-87
2021/08/07 01:55:35;;;;;;;0.95;0.85;;;;;;;;;;5071677;28;20272;-88
2021/08/07 01:58:10;;;;;;;0.70;0.70;;;;;;;;;;5072429;28;20213;-88
2021/08/07 02:00:41;;;;;;;0.90;0.90;;;;;;;;;;5075757;28;20189;-87
2021/08/07 02:03:10;;;;;;;1.13;0.85;;;;;;;;;;5070068;28;20562;-87
2021/08/07 02:05:38;;;;;;;0.88;0.88;;;;;;;;;;5054997;28;20197;-87
2021/08/07 02:08:09;;;;;;;0.98;0.98;;;;;;;;;;5055395;28;20637;-88
2021/08/07 02:10:39;;;;;;;0.95;0.90;;;;;;;;;;5055177;28;20185;-86
2021/08/07 02:13:09;;;;;;;0.85;0.85;;;;;;;;;;5055489;28;20185;-88
2021/08/07 02:15:39;;;;;;;0.75;0.75;;;;;;;;;;5065378;28;20192;-88
2021/08/07 02:18:07;;;;;;;0.77;0.77;;;;;;;;;;5074428;28;20292;-87
2021/08/07 02:20:40;;;;;;;1.00;1.00;;;;;;;;;;5075459;28;20550;-87
2021/08/07 02:23:15;;;;;;;1.20;1.10;;;;;;;;;;5075262;28;20235;-87
2021/08/07 02:25:45;;;;;;;0.60;0.60;;;;;;;;;;5075216;28;20199;-88
2021/08/07 02:28:15;;;;;;;0.90;0.90;;;;;;;;;;5075048;28;20201;-87
2021/08/07 02:30:43;;;;;;;0.80;0.80;;;;;;;;;;5074868;28;20209;-88
2021/08/07 02:33:23;;;;;;;0.70;0.70;;;;;;;;;;5075078;28;20200;-88
2021/08/07 02:35:56;;;;;;;0.90;0.90;;;;;;;;;;5074728;28;20187;-88
2021/08/07 02:38:30;;;;;;;0.80;0.80;;;;;;;;;;5074776;28;20216;-88
2021/08/07 02:40:59;;;;;;;1.27;1.25;;;;;;;;;;5075038;28;20186;-88
2021/08/07 02:43:30;;;;;;;0.93;0.82;;;;;;;;;;5074900;28;20196;-87
2021/08/07 02:46:00;;;;;;;0.70;0.70;;;;;;;;;;5074738;28;20225;-87
2021/08/07 02:48:29;;;;;;;1.02;0.93;;;;;;;;;;5074643;28;20182;-87
2021/08/07 02:51:13;;;;;;;0.75;0.75;;;;;;;;;;5074598;28;20199;-88
2021/08/07 02:53:41;;;;;;;1.52;1.20;;;;;;;;;;5074346;28;20293;-87
2021/08/07 02:56:10;;;;;;;0.80;0.80;;;;;;;;;;5074340;28;20225;-87
2021/08/07 02:58:39;;;;;;;0.75;0.75;;;;;;;;;;5074348;28;20203;-87
2021/08/07 03:01:08;;;;;;;0.88;0.88;;;;;;;;;;5074652;28;20192;-87
2021/08/07 03:03:37;;;;;;;1.15;1.05;;;;;;;;;;5074257;28;20184;-87
2021/08/07 03:06:10;;;;;;;0.57;0.57;;;;;;;;;;5074139;28;20742;-88
2021/08/07 03:08:40;;;;;;;0.75;0.75;;;;;;;;;;5074623;28;20532;-86
2021/08/07 03:11:11;;;;;;;1.75;0.65;;;;;;;;;;5074117;28;20182;-88
2021/08/07 03:13:40;;;;;;;1.90;0.70;;;;;;;;;;5074243;28;20639;-88
2021/08/07 03:16:17;;;;;;;0.70;0.70;;;;;;;;;;5074172;28;20224;-88
2021/08/07 03:19:13;;;;;;;0.93;0.93;;;;;;;;;;5073929;28;20201;-88
2021/08/07 03:21:41;;;;;;;1.42;1.33;;;;;;;;;;5073414;28;20201;-87
2021/08/07 03:24:10;;;;;;;0.80;0.80;;;;;;;;;;5073898;28;20689;-87
2021/08/07 03:26:38;;;;;;;0.73;0.73;;;;;;;;;;5073736;28;20304;-87
2021/08/07 03:29:08;;;;;;;0.80;0.80;;;;;;;;;;5073830;28;20196;-86
2021/08/07 03:31:36;;;;;;;0.55;0.55;;;;;;;;;;5073658;28;20264;-85
2021/08/07 03:34:03;;;;;;;0.80;0.80;;;;;;;;;;5073592;28;20786;-87
2021/08/07 03:36:31;;;;;;;0.60;0.60;;;;;;;;;;5073602;28;20308;-86
2021/08/07 03:38:59;;;;;;;1.85;0.85;;;;;;;;;;5073514;28;20297;-86
2021/08/07 03:41:28;;;;;;;1.35;0.80;;;;;;;;;;5073608;28;20212;-87
2021/08/07 03:43:58;;;;;;;0.90;0.90;;;;;;;;;;5073182;28;20622;-86
2021/08/07 03:46:26;;;;;;;1.05;0.90;;;;;;;;;;5073456;28;20954;-87
2021/08/07 03:48:54;;;;;;;0.73;0.73;;;;;;;;;;5073693;28;20189;-86
2021/08/07 03:51:21;;;;;;;0.70;0.70;;;;;;;;;;5072952;28;20196;-86
2021/08/07 03:53:55;;;;;;;0.60;0.60;;;;;;;;;;5073111;28;20587;-87
2021/08/07 03:56:22;;;;;;;0.68;0.68;;;;;;;;;;5073174;28;20757;-86
2021/08/07 03:58:52;;;;;;;0.73;0.73;;;;;;;;;;5073365;28;20234;-87
2021/08/07 04:01:20;;;;;;;0.70;0.70;;;;;;;;;;5073134;28;20565;-86
2021/08/07 04:03:49;;;;;;;0.88;0.88;;;;;;;;;;5073395;28;20186;-87
2021/08/07 04:06:18;;;;;;;0.60;0.60;;;;;;;;;;5072891;28;20326;-86
2021/08/07 04:08:46;;;;;;;0.82;0.40;;;;;;;;;;5072986;28;20199;-87
2021/08/07 04:11:14;;;;;;;1.08;0.80;;;;;;;;;;5073235;28;20191;-88
2021/08/07 04:13:43;;;;;;;0.70;0.70;;;;;;;;;;5073411;28;20631;-87
2021/08/07 04:16:12;;;;;;;0.52;0.52;;;;;;;;;;5072876;28;20749;-88
2021/08/07 04:18:41;;;;;;;0.70;0.70;;;;;;;;;;5072995;28;20259;-87
2021/08/07 04:21:10;;;;;;;0.65;0.65;;;;;;;;;;5072594;28;20580;-87
2021/08/07 04:23:39;;;;;;;0.50;0.50;;;;;;;;;;5073091;28;20185;-87
2021/08/07 04:26:07;;;;;;;0.65;0.65;;;;;;;;;;5072324;28;20219;-88
2021/08/07 04:28:35;;;;;;;0.60;0.60;;;;;;;;;;5072832;28;20272;-87
2021/08/07 04:31:05;;;;;;;0.50;0.50;;;;;;;;;;5072709;28;20190;-87
2021/08/07 04:33:34;;;;;;;0.93;0.52;;;;;;;;;;5073028;28;20189;-87
2021/08/07 04:36:02;;;;;;;0.77;0.77;;;;;;;;;;5072924;28;20228;-86
2021/08/07 04:38:31;;;;;;;0.80;0.80;;;;;;;;;;5072633;28;20182;-87
2021/08/07 04:41:00;;;;;;;1.40;1.30;;;;;;;;;;5072646;28;20227;-87
2021/08/07 04:43:31;;;;;;;0.50;0.50;;;;;;;;;;5073018;28;20181;-87
2021/08/07 04:46:00;;;;;;;0.68;0.68;;;;;;;;;;5072799;28;20221;-86
2021/08/07 04:48:28;;;;;;;0.80;0.80;;;;;;;;;;5072909;28;20553;-87
2021/08/07 04:50:58;;;;;;;1.02;1.00;;;;;;;;;;5072067;28;20577;-87
2021/08/07 04:53:26;;;;;;;1.15;0.70;;;;;;;;;;5072355;28;20718;-87
2021/08/07 04:55:56;;;;;;;0.60;0.60;;;;;;;;;;5072380;28;20657;-87
2021/08/07 04:58:26;;;;;;;0.70;0.70;;;;;;;;;;5072782;28;20192;-86
2021/08/07 05:01:00;;;;;;;0.70;0.70;;;;;;;;;;5072464;28;20220;-87
2021/08/07 05:03:29;;;;;;;0.75;0.75;;;;;;;;;;5072523;28;20191;-87
2021/08/07 05:05:57;;;;;;;1.60;0.77;;;;;;;;;;5072910;28;20224;-88
2021/08/07 05:08:28;;;;;;;1.08;0.70;;;;;;;;;;5072372;28;20189;-88
2021/08/07 05:10:59;;;;;;;0.70;0.70;;;;;;;;;;5072653;28;20189;-88
2021/08/07 05:13:27;;;;;;;0.60;0.60;;;;;;;;;;5072190;28;20200;-87
2021/08/07 05:15:55;;;;;;;3.97;0.80;;;;;;;;;;5071964;28;20577;-87
2021/08/07 05:18:23;;;;;;;0.80;0.80;;;;;;;;;;5072205;28;20209;-86
2021/08/07 05:20:56;;;;;;;0.60;0.60;;;;;;;;;;5072005;28;20210;-87
2021/08/07 05:23:25;;;;;;;0.60;0.60;;;;;;;;;;5072159;28;20253;-87
2021/08/07 05:25:53;;;;;;;0.60;0.60;;;;;;;;;;5072038;28;20181;-87
2021/08/07 05:28:22;;;;;;;2.53;0.82;;;;;;;;;;5072447;28;20192;-87
2021/08/07 05:30:52;;;;;;;0.57;0.57;;;;;;;;;;5072089;28;20674;-87
2021/08/07 05:33:19;;;;;;;1.95;1.00;;;;;;;;;;5072666;28;20216;-87
2021/08/07 05:35:47;;;;;;;1.25;0.90;;;;;;;;;;5075642;28;20635;-87
2021/08/07 05:38:14;;;;;;;0.70;0.70;;;;;;;;;;5075579;28;20185;-86
2021/08/07 05:40:43;;;;;;;1.17;1.17;;;;;;;;;;5075647;28;20711;-86
2021/08/07 05:43:12;;;;;;;1.25;1.08;;;;;;;;;;5075779;28;20181;-86
2021/08/07 05:45:41;;;;;;;1.02;0.80;;;;;;;;;;5075603;28;20741;-87
2021/08/07 05:48:09;;;;;;;1.00;1.00;;;;;;;;;;5075937;28;20550;-87
2021/08/07 05:50:37;;;;;;;1.13;0.95;;;;;;;;;;5075732;28;20529;-87
2021/08/07 05:53:05;;;;;;;0.75;0.75;;;;;;;;;;5075292;28;20225;-88
2021/08/07 05:55:33;;;;;;;1.02;1.00;;;;;;;;;;5075784;28;20192;-87
2021/08/07 05:58:08;;;;;;;0.90;0.90;;;;;;;;;;5075556;28;20257;-87
2021/08/07 06:00:35;;;;;;;1.55;1.20;;;;;;;;;;5075246;28;20538;-88
2021/08/07 06:03:04;;;;;;;1.02;1.02;;;;;;;;;;5075257;28;20189;-87
2021/08/07 06:05:33;;;;;;;1.17;1.10;;;;;;;;;;5075405;28;20205;-87
2021/08/07 06:08:03;;;;;;;1.25;1.15;;;;;;;;;;5075360;28;20221;-87
2021/08/07 06:10:31;;;;;;;1.27;1.10;;;;;;;;;;5075401;28;20181;-86
2021/08/07 06:12:59;;;;;;;0.80;0.80;;;;;;;;;;5075454;28;20182;-87
2021/08/07 06:15:28;;;;;;;3.15;1.13;;;;;;;;;;5075302;28;20200;-87
2021/08/07 06:17:57;;;;;;;0.60;0.60;;;;;;;;;;5075014;28;20229;-87
2021/08/07 06:20:25;;;;;;;1.55;0.60;;;;;;;;;;5075204;28;20189;-87
2021/08/07 06:22:53;;;;;;;2.03;1.80;;;;;;;;;;5074942;28;20177;-87
2021/08/07 06:25:20;;;;;;;0.82;0.82;;;;;;;;;;5074966;28;20197;-87
2021/08/07 06:27:52;;;;;;;0.80;0.80;;;;;;;;;;5074923;28;20232;-86
2021/08/07 06:30:19;;;;;;;1.08;1.08;;;;;;;;;;5075059;28;20607;-87
2021/08/07 06:32:47;;;;;;;1.10;0.98;;;;;;;;;;5074376;28;20568;-87
2021/08/07 06:35:15;;;;;;;1.00;0.85;;;;;;;;;;5074797;28;20205;-86
2021/08/07 06:37:44;;;;;;;0.73;0.73;;;;;;;;;;5074311;28;20217;-86
2021/08/07 06:40:13;;;;;;;0.70;0.70;;;;;;;;;;5074520;28;20182;-86
2021/08/07 06:42:41;;;;;;;1.40;1.30;;;;;;;;;;5074546;28;20209;-86
2021/08/07 06:45:10;;;;;;;0.90;0.90;;;;;;;;;;5074045;28;20276;-86
2021/08/07 06:47:38;;;;;;;2.67;0.80;;;;;;;;;;5074571;28;20220;-86
2021/08/07 06:50:08;;;;;;;0.70;0.70;;;;;;;;;;5075725;28;20209;-87
2021/08/07 06:52:36;;;;;;;0.80;0.80;;;;;;;;;;5074462;28;20217;-86
2021/08/07 06:55:06;;;;;;;0.70;0.70;;;;;;;;;;5075165;28;20201;-86
2021/08/07 06:57:33;;;;;;;0.90;0.90;;;;;;;;;;5075616;28;20217;-87
2021/08/07 07:00:03;;;;;;;0.75;0.75;;;;;;;;;;5074561;28;20177;-86
2021/08/07 07:02:31;;;;;;;0.60;0.60;;;;;;;;;;5073928;28;20671;-87
2021/08/07 07:05:01;;;;;;;0.93;0.93;;;;;;;;;;5073742;28;20697;-86
2021/08/07 07:07:28;;;;;;;0.85;0.77;;;;;;;;;;5074193;28;20223;-87
2021/08/07 07:09:56;;;;;;;0.70;0.70;;;;;;;;;;5074341;28;20185;-87
2021/08/07 07:12:25;;;;;;;1.00;0.60;;;;;;;;;;5073873;28;20194;-86
2021/08/07 07:14:53;;;;;;;1.00;1.00;;;;;;;;;;5074149;28;20188;-87
2021/08/07 07:17:20;;;;;;;0.88;0.88;;;;;;;;;;5073720;28;20235;-86
2021/08/07 07:19:49;;;;;;;0.70;0.70;;;;;;;;;;5074085;28;20205;-86
2021/08/07 07:22:17;;;;;;;1.92;0.90;;;;;;;;;;5074295;28;20208;-88
2021/08/07 07:24:45;;;;;;;0.70;0.70;;;;;;;;;;5074299;28;20654;-88
2021/08/07 07:27:12;;;;;;;1.27;0.82;;;;;;;;;;5074333;28;20324;-87
2021/08/07 07:29:43;;;;;;;0.65;0.65;;;;;;;;;;5074097;28;20207;-88
2021/08/07 07:32:12;;;;;;;0.73;0.73;;;;;;;;;;5074406;28;20200;-87
2021/08/07 07:34:40;;;;;;;1.00;0.80;;;;;;;;;;5074257;28;20196;-86
2021/08/07 07:37:08;;;;;;;1.38;1.08;;;;;;;;;;5074040;28;20582;-87
2021/08/07 07:39:35;;;;;;;1.27;0.85;;;;;;;;;;5073903;28;20828;-88
2021/08/07 07:42:04;;;;;;;1.15;0.80;;;;;;;;;;5073538;28;20205;-89
2021/08/07 07:44:33;;;;;;;0.85;0.85;;;;;;;;;;5073725;28;20631;-88
2021/08/07 07:47:03;;;;;;;1.40;1.30;;;;;;;;;;5073302;28;20691;-88
2021/08/07 07:49:31;;;;;;;0.80;0.80;;;;;;;;;;5073463;28;20195;-87
2021/08/07 07:51:58;;;;;;;1.08;0.80;;;;;;;;;;5073712;28;20228;-88
2021/08/07 07:54:28;;;;;;;1.17;1.08;;;;;;;;;;5072927;28;20587;-89
2021/08/07 07:56:56;;;;;;;0.90;0.90;;;;;;;;;;5072695;28;20224;-87
2021/08/07 07:59:24;;;;;;;0.90;0.90;;;;;;;;;;5074310;28;20208;-86
2021/08/07 08:01:53;;;;;;;1.50;1.40;;;;;;;;;;5074468;28;20201;-87
2021/08/07 08:04:21;;;;;;;0.90;0.90;;;;;;;;;;5074163;28;20207;-87
2021/08/07 08:06:49;;;;;;;0.82;0.82;;;;;;;;;;5074470;28;20256;-86
2021/08/07 08:09:16;;;;;;;0.77;0.77;;;;;;;;;;5074519;28;20219;-86
2021/08/07 08:11:45;;;;;;;1.00;0.90;;;;;;;;;;5074463;28;20745;-86
2021/08/07 08:14:12;;;;;;;1.67;1.00;;;;;;;;;;5075623;28;20204;-86
2021/08/07 08:16:40;;;;;;;1.27;0.80;;;;;;;;;;5074686;28;20217;-86
2021/08/07 08:19:09;;;;;;;1.08;0.82;;;;;;;;;;5073828;28;20264;-86
2021/08/07 08:21:38;;;;;;;1.35;1.00;;;;;;;;;;5073142;28;20188;-87
2021/08/07 08:24:07;;;;;;;1.05;0.98;;;;;;;;;;5072759;28;20185;-87
2021/08/07 08:26:34;;;;;;;1.35;1.17;;;;;;;;;;5072991;28;20225;-87
2021/08/07 08:29:02;;;;;;;1.15;1.08;;;;;;;;;;5072534;28;20181;-87
2021/08/07 08:31:30;;;;;;;0.98;0.80;;;;;;;;;;5072667;28;20181;-87
2021/08/07 08:33:58;;;;;;;0.90;0.90;;;;;;;;;;5072596;28;20598;-88
2021/08/07 08:36:26;;;;;;;1.00;1.00;;;;;;;;;;5072827;28;20227;-88
2021/08/07 08:38:54;;;;;;;1.33;0.90;;;;;;;;;;5072057;28;20181;-86
2021/08/07 08:41:23;;;;;;;1.17;0.95;;;;;;;;;;5073026;28;20197;-87
2021/08/07 08:43:52;;;;;;;2.63;1.13;;;;;;;;;;5072798;28;20213;-87
2021/08/07 08:46:22;;;;;;;1.42;0.93;;;;;;;;;;5059747;28;20658;-87
2021/08/07 08:48:49;;;;;;;1.13;1.13;;;;;;;;;;5064593;28;20197;-86
2021/08/07 08:51:17;;;;;;;0.90;0.90;;;;;;;;;;5073229;28;20185;-87
2021/08/07 08:53:45;;;;;;;1.40;1.30;;;;;;;;;;5053191;28;20192;-86
2021/08/07 08:56:15;;;;;;;1.45;1.13;;;;;;;;;;5042726;28;20715;-87
2021/08/07 08:58:42;;;;;;;0.85;0.85;;;;;;;;;;5032884;28;20186;-87
2021/08/07 09:01:10;;;;;;;1.48;1.35;;;;;;;;;;5032768;28;20647;-86
2021/08/07 09:03:38;;;;;;;1.13;1.02;;;;;;;;;;5032731;28;20417;-86
2021/08/07 09:06:11;;;;;;;2.22;1.20;;;;;;;;;;5049497;28;20283;-87
2021/08/07 09:08:39;;;;;;;1.40;1.30;;;;;;;;;;5055991;28;20217;-87
2021/08/07 09:11:22;;;;;;;2.25;1.60;;;;;;;;;;5038170;28;20685;-86
2021/08/07 09:13:51;;;;;;;1.45;1.10;;;;;;;;;;5036995;28;20645;-87
2021/08/07 09:16:19;;;;;;;1.08;0.98;;;;;;;;;;5036593;28;20264;-87
2021/08/07 09:18:56;;;;;;;2.97;1.00;;;;;;;;;;5036815;28;20237;-88
2021/08/07 09:21:24;;;;;;;1.52;1.42;;;;;;;;;;5036295;28;20248;-88
2021/08/07 09:24:08;;;;;;;1.40;1.30;;;;;;;;;;5049870;28;20222;-89
2021/08/07 09:26:40;;;;;;;2.15;1.02;;;;;;;;;;5055900;28;20213;-88
2021/08/07 09:29:20;;;;;;;1.00;1.00;;;;;;;;;;5036474;28;20245;-87
2021/08/07 09:31:59;;;;;;;1.08;0.98;;;;;;;;;;5035824;28;20210;-87
2021/08/07 09:34:26;;;;;;;1.73;1.35;;;;;;;;;;5036124;28;20193;-87
2021/08/07 09:36:56;;;;;;;1.23;0.82;;;;;;;;;;5050779;28;20717;-87
2021/08/07 09:39:36;;;;;;;1.00;0.90;;;;;;;;;;5055835;28;20194;-86
2021/08/07 09:42:06;;;;;;;1.20;1.10;;;;;;;;;;5055068;28;20174;-87
2021/08/07 09:44:35;;;;;;;1.00;0.90;;;;;;;;;;5055366;28;20221;-88
2021/08/07 09:47:07;;;;;;;2.15;1.00;;;;;;;;;;5056135;28;20222;-87
2021/08/07 09:49:37;;;;;;;1.20;1.10;;;;;;;;;;5056098;28;20209;-86
2021/08/07 09:52:06;;;;;;;1.30;1.20;;;;;;;;;;5062712;28;20227;-87
2021/08/07 09:54:38;;;;;;;1.67;1.13;;;;;;;;;;5076207;28;20200;-86
2021/08/07 09:57:09;;;;;;;0.90;0.90;;;;;;;;;;5076756;28;20236;-85
2021/08/07 09:59:47;;;;;;;1.40;1.00;;;;;;;;;;5076602;28;20181;-86
2021/08/07 10:02:24;;;;;;;1.33;1.10;;;;;;;;;;5076119;28;20180;-86
2021/08/07 10:04:52;;;;;;;1.10;1.00;;;;;;;;;;5075696;28;20192;-86
2021/08/07 10:07:19;;;;;;;1.00;0.90;;;;;;;;;;5075639;28;20217;-86
2021/08/07 10:09:47;;;;;;;1.05;1.00;;;;;;;;;;5075777;28;20200;-88
2021/08/07 10:12:17;;;;;;;1.17;1.08;;;;;;;;;;5074991;28;20201;-89
2021/08/07 10:14:48;;;;;;;0.95;0.70;;;;;;;;;;5075542;28;20185;-87
2021/08/07 10:17:19;;;;;;;0.63;0.63;;;;;;;;;;5075547;28;20232;-87
2021/08/07 10:19:54;;;;;;;0.90;0.90;;;;;;;;;;5074741;28;20185;-90
2021/08/07 10:22:23;;;;;;;0.85;0.80;;;;;;;;;;5075792;28;20189;-88
2021/08/07 10:24:52;;;;;;;0.88;0.88;;;;;;;;;;5074208;28;20623;-87
2021/08/07 10:27:21;;;;;;;0.85;0.85;;;;;;;;;;5075449;28;20221;-86
2021/08/07 10:29:51;;;;;;;0.82;0.82;;;;;;;;;;5075457;28;20191;-87
2021/08/07 10:32:23;;;;;;;1.80;1.27;;;;;;;;;;5074915;28;20192;-88
2021/08/07 10:34:52;;;;;;;1.38;0.90;;;;;;;;;;5074474;28;20200;-87
2021/08/07 10:37:20;;;;;;;0.70;0.70;;;;;;;;;;5074423;28;20294;-87
2021/08/07 10:39:49;;;;;;;1.50;1.40;;;;;;;;;;5075523;28;20288;-86
2021/08/07 10:42:20;;;;;;;1.25;0.80;;;;;;;;;;5075371;28;20181;-86
2021/08/07 10:44:49;;;;;;;2.30;1.00;;;;;;;;;;5074896;28;20229;-86
2021/08/07 10:47:36;;;;;;;1.02;0.93;;;;;;;;;;5074775;28;20225;-87
2021/08/07 10:50:36;;;;;;;1.45;1.35;;;;;;;;;;5075259;28;20188;-87
2021/08/07 10:53:07;;;;;;;1.10;1.00;;;;;;;;;;5074989;28;20233;-87
2021/08/07 10:55:47;;;;;;;1.70;1.00;;;;;;;;;;5074801;28;20183;-87
2021/08/07 10:58:45;;;;;;;0.70;0.70;;;;;;;;;;5074994;28;20251;-86
2021/08/07 11:01:43;;;;;;;0.90;0.90;;;;;;;;;;5075024;28;20563;-87
2021/08/07 11:04:23;;;;;;;1.77;0.90;;;;;;;;;;4973707;28;20228;-87
2021/08/07 11:09:22;;;;;;;0.80;0.70;;;;;;;;;;5052357;28;20209;-89
2021/08/07 11:12:13;;;;;;;0.70;0.70;;;;;;;;;;5052808;28;20190;-87
2021/08/07 11:14:51;;;;;;;3.30;1.10;;;;;;;;;;5052378;28;20752;-86
2021/08/07 11:17:50;;;;;;;0.70;0.70;;;;;;;;;;5053005;28;20698;-87
2021/08/07 11:20:43;;;;;;;1.20;0.80;;;;;;;;;;5052885;28;20643;-87
2021/08/07 11:23:37;;;;;;;1.65;1.55;;;;;;;;;;5053177;28;20194;-87
2021/08/07 11:26:07;;;;;;;2.17;1.50;;;;;;;;;;5048402;28;20202;-87
2021/08/07 11:28:54;;;;;;;0.63;0.63;;;;;;;;;;5052499;28;20577;-87
2021/08/07 11:31:25;;;;;;;0.80;0.80;;;;;;;;;;5051587;28;20299;-87
2021/08/07 11:34:30;;;;;;;0.77;0.77;;;;;;;;;;5052282;28;20209;-87
2021/08/07 11:37:24;;;;;;;0.82;0.70;;;;;;;;;;5051963;28;20611;-86
2021/08/07 11:40:13;;;;;;;1.05;0.90;;;;;;;;;;5051673;28;20182;-86
2021/08/07 11:42:44;;;;;;;0.70;0.70;;;;;;;;;;5051773;28;20205;-86
2021/08/07 11:45:18;;;;;;;1.48;1.38;;;;;;;;;;5051334;28;20727;-86
2021/08/07 11:47:54;;;;;;;0.73;0.73;;;;;;;;;;5051285;28;20221;-87
2021/08/07 11:50:23;;;;;;;0.85;0.85;;;;;;;;;;5051633;28;20185;-88
2021/08/07 11:52:51;;;;;;;0.77;0.70;;;;;;;;;;5052984;28;20190;-89
2021/08/07 11:55:19;;;;;;;1.13;1.13;;;;;;;;;;5051095;28;20185;-87
2021/08/07 11:57:47;;;;;;;0.80;0.73;;;;;;;;;;5051295;28;20308;-86
2021/08/07 12:00:26;;;;;;;0.90;0.90;;;;;;;;;;5050986;28;20568;-86
2021/08/07 12:03:05;;;;;;;0.82;0.82;;;;;;;;;;5051257;28;20903;-87
2021/08/07 12:05:34;;;;;;;1.98;1.30;;;;;;;;;;5051636;28;20217;-87
2021/08/07 12:08:06;;;;;;;1.30;1.20;;;;;;;;;;5051530;28;20232;-88
2021/08/07 12:10:35;;;;;;;0.82;0.82;;;;;;;;;;5051655;28;20201;-86
2021/08/07 12:13:03;;;;;;;2.47;1.10;;;;;;;;;;5051359;28;20822;-87
2021/08/07 12:15:32;;;;;;;0.90;0.90;;;;;;;;;;5051202;28;20595;-86
2021/08/07 12:18:01;;;;;;;1.10;1.00;;;;;;;;;;5051300;28;20227;-86
2021/08/07 12:20:29;;;;;;;1.30;0.93;;;;;;;;;;5051225;28;20206;-87
2021/08/07 12:23:03;;;;;;;3.30;1.08;;;;;;;;;;5051261;28;20182;-87
2021/08/07 12:25:34;;;;;;;1.55;1.00;;;;;;;;;;5050441;28;20226;-87
2021/08/07 12:28:08;;;;;;;1.98;1.05;;;;;;;;;;5051301;28;20221;-87
2021/08/07 12:30:37;;;;;;;1.10;0.80;;;;;;;;;;5050865;28;20663;-87
2021/08/07 12:33:19;;;;;;;0.70;0.70;;;;;;;;;;5051110;28;20208;-86
2021/08/07 12:35:47;;;;;;;1.25;0.93;;;;;;;;;;5051367;28;20192;-87
2021/08/07 12:38:19;;;;;;;0.70;0.70;;;;;;;;;;5051151;28;20228;-87
2021/08/07 12:40:51;;;;;;;1.25;1.15;;;;;;;;;;5051344;28;20182;-86
2021/08/07 12:43:18;;;;;;;1.10;1.00;;;;;;;;;;5051259;28;20186;-86
2021/08/07 12:45:59;;;;;;;1.85;0.90;;;;;;;;;;5051426;28;20202;-87
2021/08/07 12:48:45;;;;;;;0.80;0.75;;;;;;;;;;5051501;28;20268;-86
2021/08/07 12:51:13;;;;;;;0.80;0.80;;;;;;;;;;5051339;28;20189;-86
2021/08/07 12:53:44;;;;;;;1.33;1.00;;;;;;;;;;5050818;28;20214;-86
2021/08/07 12:56:11;;;;;;;1.25;1.00;;;;;;;;;;5051277;28;20276;-87
2021/08/07 12:58:39;;;;;;;0.73;0.70;;;;;;;;;;5050891;28;20182;-86
2021/08/07 13:01:12;;;;;;;0.85;0.80;;;;;;;;;;5051136;28;20192;-86
2021/08/07 13:03:55;;;;;;;0.82;0.77;;;;;;;;;;5050329;28;20186;-87
2021/08/07 13:06:23;;;;;;;0.80;0.80;;;;;;;;;;5050516;28;20225;-87
2021/08/07 13:08:51;;;;;;;0.88;0.73;;;;;;;;;;5050298;28;20606;-87
2021/08/07 13:11:21;;;;;;;0.77;0.77;;;;;;;;;;5051562;28;20566;-87
2021/08/07 13:13:51;;;;;;;0.57;0.57;;;;;;;;;;5051954;28;20213;-87
2021/08/07 13:16:42;;;;;;;0.98;0.63;;;;;;;;;;5052093;28;20221;-86
2021/08/07 13:19:20;;;;;;;0.95;0.90;;;;;;;;;;5051615;28;20263;-87
2021/08/07 13:21:48;;;;;;;0.85;0.70;;;;;;;;;;5050791;28;20205;-87
2021/08/07 13:24:33;;;;;;;1.00;1.00;;;;;;;;;;5050501;28;20699;-86
2021/08/07 13:27:04;;;;;;;1.10;1.00;;;;;;;;;;5050557;28;20592;-87
2021/08/07 13:29:31;;;;;;;0.75;0.75;;;;;;;;;;5050333;28;20190;-87
2021/08/07 13:32:00;;;;;;;0.60;0.60;;;;;;;;;;5049933;28;20190;-87
2021/08/07 13:34:30;;;;;;;1.05;1.00;;;;;;;;;;5049853;28;20220;-87
2021/08/07 13:36:57;;;;;;;1.00;1.00;;;;;;;;;;5049652;28;20220;-87
2021/08/07 13:39:25;;;;;;;0.70;0.70;;;;;;;;;;5050504;28;20192;-87
2021/08/07 13:41:53;;;;;;;0.80;0.80;;;;;;;;;;5049961;28;20632;-87
2021/08/07 13:44:22;;;;;;;1.10;1.00;;;;;;;;;;5049665;28;20186;-88
2021/08/07 13:46:50;;;;;;;0.80;0.63;;;;;;;;;;5050600;28;20237;-87
2021/08/07 13:49:17;;;;;;;0.68;0.68;;;;;;;;;;5050166;28;20202;-87
2021/08/07 13:51:46;;;;;;;1.25;0.70;;;;;;;;;;5049183;28;20198;-87
2021/08/07 13:54:16;;;;;;;0.95;0.95;;;;;;;;;;5050507;28;20186;-87
2021/08/07 13:56:44;;;;;;;0.93;0.90;;;;;;;;;;5054435;28;20710;-86
2021/08/07 13:59:12;;;;;;;1.15;1.15;;;;;;;;;;5056084;28;20174;-87
2021/08/07 14:01:39;;;;;;;1.10;0.93;;;;;;;;;;5055861;28;20202;-87
2021/08/07 14:04:07;;;;;;;0.93;0.93;;;;;;;;;;5056296;28;20190;-87
2021/08/07 14:06:34;;;;;;;1.40;1.30;;;;;;;;;;5055785;28;20232;-86
2021/08/07 14:09:04;;;;;;;0.85;0.82;;;;;;;;;;5055646;28;20244;-86
2021/08/07 14:11:32;;;;;;;0.95;0.80;;;;;;;;;;5056402;28;20192;-86
2021/08/07 14:14:00;;;;;;;2.40;1.42;;;;;;;;;;5056207;28;20585;-87
2021/08/07 14:16:29;;;;;;;1.10;0.90;;;;;;;;;;5056133;28;20628;-86
2021/08/07 14:18:56;;;;;;;0.90;0.90;;;;;;;;;;5056767;28;20185;-86
2021/08/07 14:21:24;;;;;;;1.38;1.10;;;;;;;;;;5056329;28;20672;-86
2021/08/07 14:23:51;;;;;;;0.95;0.95;;;;;;;;;;5056356;28;20190;-86
2021/08/07 14:26:20;;;;;;;1.08;1.00;;;;;;;;;;5056608;28;20232;-85
2021/08/07 14:28:47;;;;;;;1.02;0.82;;;;;;;;;;5053102;28;20297;-88
2021/08/07 14:31:16;;;;;;;1.38;1.13;;;;;;;;;;5056078;28;20667;-88
2021/08/07 14:33:44;;;;;;;1.10;1.00;;;;;;;;;;5056209;28;20204;-87
2021/08/07 14:36:11;;;;;;;4.18;0.80;;;;;;;;;;5054962;28;20185;-87
2021/08/07 14:38:41;;;;;;;1.10;1.00;;;;;;;;;;5054644;28;20353;-87
2021/08/07 14:41:11;;;;;;;1.40;0.93;;;;;;;;;;5054221;28;20200;-87
2021/08/07 14:43:41;;;;;;;1.20;1.10;;;;;;;;;;5055191;28;20264;-87
2021/08/07 14:46:09;;;;;;;1.00;1.00;;;;;;;;;;5054915;28;20228;-88
2021/08/07 14:48:37;;;;;;;1.05;1.00;;;;;;;;;;5036351;28;20205;-86
2021/08/07 14:51:05;;;;;;;2.80;0.95;;;;;;;;;;5035017;28;20213;-84
2021/08/07 14:53:32;;;;;;;1.55;0.90;;;;;;;;;;5035842;28;20187;-87
2021/08/07 14:56:00;;;;;;;1.00;0.90;;;;;;;;;;5034968;28;20702;-86
2021/08/07 14:58:27;;;;;;;0.90;0.90;;;;;;;;;;5052877;28;20198;-85
2021/08/07 15:00:56;;;;;;;1.45;0.95;;;;;;;;;;5055158;28;20232;-87
2021/08/07 15:03:24;;;;;;;1.35;1.10;;;;;;;;;;5055482;28;20205;-86
2021/08/07 15:05:51;;;;;;;1.85;1.15;;;;;;;;;;5055211;28;20975;-86
2021/08/07 15:08:19;;;;;;;2.03;0.90;;;;;;;;;;5056669;28;20226;-86